Higginsville, New York
Current Conditions -  °F | °C
As of 2:53 PM on Thursday 30 Oct 2014 (Local Time) from KRME Reporting Station
Overcast Overcast  
Wind Chill: 42°   Ceiling: 3900
Heat Index: 47°   Visibility: 10mi
Dew Point: 36°   Wind: 12mph
Humidity: 66%   Direction: 300°WNW
Pressure: 30.03"   Gusts: NA
Location:  43.1683°N, 75.6691°W
Report Text: KRME 301853Z 30010KT 10SM SCT030 OVC039 08/02 A3003 RMK AO2 SLP169 T00830022
Loading
Personal Weather Stations






























Interactive Weather Map New forecast layout! Learn more

10-Day Weather Forecast

Advertisements
Track Severe Weather on mobile